Flight Track Log - Related Links

Times and Time Zones

All times are in EDT time to prevent confusion due to time zone crossing. See the N302QS flight status page for this flight to view local times or setup timezone preferences in your user account.

Time Position Orientation Groundspeed Altitude Reporting Facility
EDT Latitude Longitude Course Direction KTS MPH feet Rate Location/Type
Sat 09:02:40 AM 43.6510 -70.4590 274° West 228 262 7,300  Level FlightAware ADS-B
Sat 09:02:46 AM 43.6520 -70.4690 278° West 230 265 7,700 3,316 Climbing FlightAware ADS-B
Sat 09:03:18 AM 43.6550 -70.5160 275° West 245 282 9,400 2,480 Climbing FlightAware ADS-B
Sat 09:04:01 AM 43.6600 -70.5900 275° West 278 320 10,800 2,966 Climbing FlightAware ADS-B
Sat 09:04:45 AM 43.6660 -70.6660 276° West 266 306 13,700 3,500 Climbing FlightAware ADS-B
Sat 09:05:25 AM 43.6620 -70.7340 265° West 269 310 15,700 3,000 Climbing FlightAware ADS-B
Sat 09:06:09 AM 43.6510 -70.8080 258° West 271 312 17,900 2,857 Climbing FlightAware ADS-B
Sat 09:06:49 AM 43.6410 -70.8760 259° West 275 316 19,700 2,561 Climbing FlightAware ADS-B
Sat 09:07:31 AM 43.6300 -70.9480 258° West 283 326 21,400 2,233 Climbing FlightAware ADS-B
Sat 09:08:15 AM 43.6180 -71.0290 258° West 295 339 22,900 1,143 Climbing FlightAware ADS-B
Sat 09:08:55 AM 43.6070 -71.1060 259° West 339 390 23,000 71 Climbing FlightAware ADS-B
Sat 09:09:39 AM 43.5920 -71.2050 258° West 374 430 23,000 286 Level FlightAware ADS-B
Sat 09:10:19 AM 43.5770 -71.3010 258° West 384 442 23,400 750 Climbing FlightAware ADS-B
Sat 09:10:59 AM 43.5620 -71.3960 258° West 385 443 24,000 429 Climbing FlightAware ADS-B
Sat 09:11:43 AM 43.5470 -71.4990 259° West 399 459 24,000  Level FlightAware ADS-B
Sat 09:12:26 AM 43.5340 -71.5800 258° West 405 466 24,000  Level FlightAware ADS-B
Sat 09:13:09 AM 43.5120 -71.7240 258° West 412 474 24,000  Level FlightAware ADS-B
Sat 09:13:37 AM 43.5010 -71.7920 257° West 410 472 24,000  Level FlightAware ADS-B
Sat 09:14:28 AM 43.4820 -71.9150 258° West 394 453 24,000  Level FlightAware ADS-B
Sat 09:15:17 AM 43.4630 -72.0340 258° West 386 444 24,000  Level FlightAware ADS-B
Sat 09:16:02 AM 43.4450 -72.1440 257° West 380 437 24,000  Level FlightAware ADS-B
Sat 09:16:47 AM 43.4270 -72.2520 257° West 379 436 24,000  Level FlightAware ADS-B
Sat 09:17:43 AM 43.4060 -72.3850 258° West 378 435 24,000  Level FlightAware ADS-B
Sat 09:18:23 AM 43.3900 -72.4790 257° West 379 436 24,000  Level FlightAware ADS-B
Sat 09:19:03 AM 43.3750 -72.5720 258° West 381 438 24,000  Level FlightAware ADS-B
Sat 09:19:47 AM 43.3580 -72.6760 257° West 381 438 24,000  Level FlightAware ADS-B
Sat 09:20:29 AM 43.3420 -72.7730 257° West 381 438 24,000  Level FlightAware ADS-B
Sat 09:21:13 AM 43.3240 -72.8800 257° West 381 438 24,000  Level FlightAware ADS-B
Sat 09:21:53 AM 43.3080 -72.9740 257° West 380 437 24,000  Level FlightAware ADS-B
Sat 09:22:43 AM 43.2890 -73.0820 256° West 380 437 24,000  Level FlightAware ADS-B
Sat 09:23:31 AM 43.2700 -73.1980 257° West 379 436 24,000 -117 Level FlightAware ADS-B
Sat 09:24:26 AM 43.2470 -73.3290 256° West 382 440 23,800 -444 Descending FlightAware ADS-B
Sat 09:25:19 AM 43.2270 -73.4500 257° West 397 457 23,200 -1,516 Descending FlightAware ADS-B
Sat 09:25:57 AM 43.2060 -73.5490 254° West 397 457 21,500 -1,350 Descending FlightAware ADS-B
Sat 09:26:39 AM 43.1770 -73.6240 242° Southwest 399 459 21,400 -76 Descending FlightAware ADS-B
Sat 09:27:16 AM 43.1510 -73.6950 243° Southwest 399 459 21,400  Level FlightAware ADS-B
Sat 09:27:52 AM 43.1250 -73.7640 243° Southwest 399 459 21,400  Level FlightAware ADS-B
Sat 09:28:40 AM 43.0910 -73.8560 243° Southwest 399 459 21,400  Level FlightAware ADS-B
Sat 09:29:16 AM 43.0660 -73.9250 244° Southwest 399 459 21,400 -4,633 Level FlightAware ADS-B
Sat 09:29:59 AM 42.8072 -73.7814 244° Southwest 396 456 15,300 -4,269 Descending Boston Center
Sat 09:31:00 AM 42.7086 -73.8358 202° Southwest 396 456 14,000 -639 Descending Boston Center
Sat 09:32:01 AM 42.6222 -73.9017 209° Southwest 377 434 14,000  Level Boston Center
Sat 09:32:58 AM 42.5297 -73.9672 208° Southwest 370 426 14,000  Level Boston Center
Sat 09:33:59 AM 42.4414 -74.0325 209° Southwest 370 426 14,000  Level Boston Center
Sat 09:35:00 AM 42.3528 -74.0978 209° Southwest 370 426 14,000  Level Boston Center
Sat 09:36:00 AM 42.2728 -74.1572 209° Southwest 370 426 14,000  Level Boston Center
Sat 09:36:58 AM 42.1758 -74.2275 208° Southwest 370 426 14,000  Level Boston Center
Sat 09:37:58 AM 42.0978 -74.2867 209° Southwest 370 426 14,000 -248 Level Boston Center
Sat 09:38:59 AM 41.9986 -74.3564 208° Southwest 370 426 13,500 -793 Descending Boston Center
Sat 09:39:59 AM 41.9206 -74.4128 208° Southwest 370 426 12,400 -1,200 Descending Boston Center
Sat 09:40:59 AM 41.8233 -74.4822 208° Southwest 365 420 11,100 -1,190 Descending Boston Center
Sat 09:42:00 AM 41.7497 -74.5272 205° Southwest 345 397 10,000 -1,140 Descending Boston Center
Sat 09:43:00 AM 41.6639 -74.5436 188° South 297 342 8,800 -1,017 Descending Boston Center
Sat 09:43:58 AM 41.5969 -74.5581 189° South 291 335 8,000 -555 Descending Boston Center
Sat 09:44:59 AM 41.5133 -74.5719 187° South 281 323 7,700 -628 Descending Boston Center
Sat 09:50:30 AM 41.1390 -74.5040 187° South 213 245 3,900 -632 Descending FlightAware ADS-B
Sat 09:51:00 AM 41.1190 -74.4850 144° Southeast 213 245 3,900 -750 Level FlightAware ADS-B
Sat 09:51:50 AM 41.0759 -74.4460 146° Southeast 198 228 2,900 -870 Descending FlightAware ADS-B
Sat 09:52:09 AM 41.0614 -74.4322 144° Southeast 207 238 2,900  Level FlightAware ADS-B
Sat 09:52:24 AM 41.0493 -74.4208 145° Southeast 212 244 2,900  Level FlightAware ADS-B
Sat 09:52:41 AM 41.0357 -74.4080 145° Southeast 215 247 2,900  Level FlightAware ADS-B
Sat 09:53:02 AM 41.0181 -74.3915 145° Southeast 214 246 2,900  Level FlightAware ADS-B
Sat 09:53:18 AM 41.0053 -74.3796 145° Southeast 207 238 2,900 -571 Level FlightAware ADS-B
Sat 09:53:44 AM 40.9852 -74.3609 145° Southeast 207 238 2,500 -1,000 Descending FlightAware ADS-B
Sat 09:54:12 AM 40.9639 -74.3411 145° Southeast 201 231 2,000 -800 Descending FlightAware ADS-B
Sat 09:54:29 AM 40.9521 -74.3299 144° Southeast 181 208 1,900 -90 Descending FlightAware ADS-B
Sat 09:56:25 AM 40.8740 -74.3410 186° South 163 188 1,800 -42 Descending FlightAware ADS-B
Sat 09:56:51 AM 40.8610 -74.3540 217° Southwest 163 188 1,800 -538 Level FlightAware ADS-B
Sat 09:57:43 AM 40.8333 -74.3833 217° Southwest 120 138 1,100 -808 Descending New York TRACON
Sat 09:59:00 AM 40.7993 -74.4149 180° South  Level Estimated
Sat 10:06:00 AM 40.7993 -74.4149 180° South  Level Estimated
Sat 10:07:00 AM 40.7993 -74.4149 180° South  Level Estimated

Login

Don't have an account? Register now (free) for customized features, flight alerts, and more!